sensor_id;sensor_type;location;lat;lon;timestamp;pressure;altitude;pressure_sealevel;temperature;humidity
60087;BME280;45960;53.630;55.972;2023-04-01T00:00:01;100342.00;;;10.39;53.54
60087;BME280;45960;53.630;55.972;2023-04-01T00:01:03;100352.69;;;10.39;53.56
60087;BME280;45960;53.630;55.972;2023-04-01T00:02:04;100349.94;;;10.40;53.22
60087;BME280;45960;53.630;55.972;2023-04-01T00:03:05;100356.03;;;10.42;53.28
60087;BME280;45960;53.630;55.972;2023-04-01T00:04:06;100356.78;;;10.44;52.96
60087;BME280;45960;53.630;55.972;2023-04-01T00:05:07;100352.31;;;10.45;52.88
60087;BME280;45960;53.630;55.972;2023-04-01T00:06:08;100357.75;;;10.43;52.87
60087;BME280;45960;53.630;55.972;2023-04-01T00:07:10;100355.06;;;10.43;52.81
60087;BME280;45960;53.630;55.972;2023-04-01T00:08:11;100355.06;;;10.43;52.60
60087;BME280;45960;53.630;55.972;2023-04-01T00:09:12;100358.50;;;10.45;52.36
60087;BME280;45960;53.630;55.972;2023-04-01T00:10:13;100356.69;;;10.46;52.18
60087;BME280;45960;53.630;55.972;2023-04-01T00:11:14;100360.22;;;10.46;52.11
60087;BME280;45960;53.630;55.972;2023-04-01T00:12:15;100353.94;;;10.47;51.91
60087;BME280;45960;53.630;55.972;2023-04-01T00:13:16;100355.53;;;10.50;51.96
60087;BME280;45960;53.630;55.972;2023-04-01T00:14:17;100363.16;;;10.42;53.13
60087;BME280;45960;53.630;55.972;2023-04-01T00:15:17;100369.59;;;10.39;53.81
60087;BME280;45960;53.630;55.972;2023-04-01T00:16:18;100369.59;;;10.39;54.13
60087;BME280;45960;53.630;55.972;2023-04-01T00:17:19;100365.00;;;10.41;54.36
60087;BME280;45960;53.630;55.972;2023-04-01T00:18:20;100340.00;;;10.42;54.64
60087;BME280;45960;53.630;55.972;2023-04-01T00:19:21;100337.34;;;10.42;54.69
60087;BME280;45960;53.630;55.972;2023-04-01T00:20:22;100337.34;;;10.42;54.69
60087;BME280;45960;53.630;55.972;2023-04-01T00:21:23;100330.25;;;10.41;54.63
60087;BME280;45960;53.630;55.972;2023-04-01T00:22:24;100337.16;;;10.45;54.63
60087;BME280;45960;53.630;55.972;2023-04-01T00:23:25;100335.41;;;10.44;54.51
60087;BME280;45960;53.630;55.972;2023-04-01T00:24:26;100332.00;;;10.42;54.42
60087;BME280;45960;53.630;55.972;2023-04-01T00:25:27;100337.53;;;10.39;54.23
60087;BME280;45960;53.630;55.972;2023-04-01T00:26:28;100335.81;;;10.38;54.28
60087;BME280;45960;53.630;55.972;2023-04-01T00:27:29;100336.84;;;10.36;54.28
60087;BME280;45960;53.630;55.972;2023-04-01T00:28:30;100335.16;;;10.35;54.13
60087;BME280;45960;53.630;55.972;2023-04-01T00:29:31;100332.56;;;10.33;54.14
60087;BME280;45960;53.630;55.972;2023-04-01T00:30:33;100317.50;;;10.32;54.02
60087;BME280;45960;53.630;55.972;2023-04-01T00:31:34;100302.44;;;10.31;54.16
60087;BME280;45960;53.630;55.972;2023-04-01T00:32:34;100294.63;;;10.28;54.10
60087;BME280;45960;53.630;55.972;2023-04-01T00:33:36;100288.50;;;10.26;54.01
60087;BME280;45960;53.630;55.972;2023-04-01T00:34:37;100285.06;;;10.24;53.96
60087;BME280;45960;53.630;55.972;2023-04-01T00:35:38;100281.72;;;10.20;54.19
60087;BME280;45960;53.630;55.972;2023-04-01T00:36:39;100283.56;;;10.20;53.92
60087;BME280;45960;53.630;55.972;2023-04-01T00:37:40;100290.78;;;10.18;53.93
60087;BME280;45960;53.630;55.972;2023-04-01T00:38:41;100289.09;;;10.17;53.96
60087;BME280;45960;53.630;55.972;2023-04-01T00:39:42;100286.50;;;10.15;53.79
60087;BME280;45960;53.630;55.972;2023-04-01T00:40:45;100298.03;;;10.16;53.82
60087;BME280;45960;53.630;55.972;2023-04-01T00:41:46;100294.59;;;10.14;53.62
60087;BME280;45960;53.630;55.972;2023-04-01T00:42:47;100287.56;;;10.13;53.72
60087;BME280;45960;53.630;55.972;2023-04-01T00:43:49;100275.16;;;10.12;53.77
60087;BME280;45960;53.630;55.972;2023-04-01T00:44:51;100268.09;;;10.11;53.73
60087;BME280;45960;53.630;55.972;2023-04-01T00:45:52;100262.03;;;10.08;53.68
60087;BME280;45960;53.630;55.972;2023-04-01T00:46:53;100259.56;;;10.05;53.83
60087;BME280;45960;53.630;55.972;2023-04-01T00:47:54;100268.50;;;10.04;53.74
60087;BME280;45960;53.630;55.972;2023-04-01T00:48:55;100263.34;;;10.01;53.83
60087;BME280;45960;53.630;55.972;2023-04-01T00:49:56;100266.22;;;9.98;53.79
60087;BME280;45960;53.630;55.972;2023-04-01T00:51:02;100287.84;;;9.94;53.89
60087;BME280;45960;53.630;55.972;2023-04-01T00:52:05;100303.41;;;9.87;54.01
60087;BME280;45960;53.630;55.972;2023-04-01T00:53:07;100309.38;;;9.76;55.43
60087;BME280;45960;53.630;55.972;2023-04-01T00:54:08;100311.97;;;9.63;56.05
60087;BME280;45960;53.630;55.972;2023-04-01T00:55:10;100309.94;;;9.53;55.98
60087;BME280;45960;53.630;55.972;2023-04-01T00:57:19;100296.88;;;9.48;55.99
60087;BME280;45960;53.630;55.972;2023-04-01T00:58:21;100296.50;;;9.54;55.68
60087;BME280;45960;53.630;55.972;2023-04-01T00:59:25;100303.38;;;9.58;55.61
60087;BME280;45960;53.630;55.972;2023-04-01T01:00:27;100307.56;;;9.62;55.30
60087;BME280;45960;53.630;55.972;2023-04-01T01:01:28;100301.09;;;9.67;55.21
60087;BME280;45960;53.630;55.972;2023-04-01T01:02:30;100304.31;;;9.72;55.15
60087;BME280;45960;53.630;55.972;2023-04-01T01:03:32;100313.88;;;9.76;54.86
60087;BME280;45960;53.630;55.972;2023-04-01T01:04:33;100316.34;;;9.79;54.63
60087;BME280;45960;53.630;55.972;2023-04-01T01:05:38;100316.16;;;9.82;54.50
60087;BME280;45960;53.630;55.972;2023-04-01T01:06:46;100317.69;;;9.86;54.41
60087;BME280;45960;53.630;55.972;2023-04-01T01:08:56;100326.09;;;9.94;54.09
60087;BME280;45960;53.630;55.972;2023-04-01T01:11:00;100332.75;;;10.01;53.93
60087;BME280;45960;53.630;55.972;2023-04-01T01:12:05;100336.19;;;10.03;53.70
60087;BME280;45960;53.630;55.972;2023-04-01T01:13:11;100327.22;;;10.04;53.56
60087;BME280;45960;53.630;55.972;2023-04-01T01:14:30;100328.94;;;10.05;53.47
60087;BME280;45960;53.630;55.972;2023-04-01T01:16:44;100327.88;;;10.08;53.28
60087;BME280;45960;53.630;55.972;2023-04-01T01:17:52;100327.88;;;10.08;53.18
60087;BME280;45960;53.630;55.972;2023-04-01T01:22:40;100324.94;;;10.13;52.98
60087;BME280;45960;53.630;55.972;2023-04-01T01:24:24;100318.63;;;10.14;52.73
60087;BME280;45960;53.630;55.972;2023-04-01T01:27:58;100305.09;;;10.17;52.41
60087;BME280;45960;53.630;55.972;2023-04-01T01:30:15;100305.84;;;10.19;52.36
60087;BME280;45960;53.630;55.972;2023-04-01T01:31:33;100299.78;;;10.17;52.32
60087;BME280;45960;53.630;55.972;2023-04-01T01:32:38;100290.03;;;10.16;52.21
60087;BME280;45960;53.630;55.972;2023-04-01T01:36:22;100271.53;;;10.13;52.15
60087;BME280;45960;53.630;55.972;2023-04-01T01:37:28;100271.53;;;10.13;52.14
60087;BME280;45960;53.630;55.972;2023-04-01T01:38:31;100268.09;;;10.11;52.19
60087;BME280;45960;53.630;55.972;2023-04-01T01:39:36;100269.91;;;10.10;52.09
60087;BME280;45960;53.630;55.972;2023-04-01T01:40:39;100269.84;;;10.12;51.97
60087;BME280;45960;53.630;55.972;2023-04-01T01:41:41;100255.63;;;10.11;51.89
60087;BME280;45960;53.630;55.972;2023-04-01T01:42:45;100254.66;;;10.12;51.86
60087;BME280;45960;53.630;55.972;2023-04-01T01:43:48;100250.19;;;10.13;51.70
60087;BME280;45960;53.630;55.972;2023-04-01T01:44:51;100255.53;;;10.13;51.90
60087;BME280;45960;53.630;55.972;2023-04-01T01:45:54;100250.28;;;10.11;51.86
60087;BME280;45960;53.630;55.972;2023-04-01T01:46:56;100244.06;;;10.11;51.51
60087;BME280;45960;53.630;55.972;2023-04-01T01:47:57;100244.19;;;10.09;51.84
60087;BME280;45960;53.630;55.972;2023-04-01T01:49:00;100254.00;;;10.08;51.69
60087;BME280;45960;53.630;55.972;2023-04-01T01:50:02;100260.19;;;10.09;51.61
60087;BME280;45960;53.630;55.972;2023-04-01T01:51:05;100275.38;;;10.08;51.64
60087;BME280;45960;53.630;55.972;2023-04-01T01:52:06;100271.94;;;10.06;51.56
60087;BME280;45960;53.630;55.972;2023-04-01T01:53:08;100274.59;;;10.06;51.73
60087;BME280;45960;53.630;55.972;2023-04-01T01:54:13;100271.94;;;10.06;51.65
60087;BME280;45960;53.630;55.972;2023-04-01T01:56:26;100280.72;;;10.08;51.59
60087;BME280;45960;53.630;55.972;2023-04-01T01:57:29;100275.38;;;10.08;51.31
60087;BME280;45960;53.630;55.972;2023-04-01T01:59:07;100273.63;;;10.07;51.34
60087;BME280;45960;53.630;55.972;2023-04-01T02:00:02;100279.81;;;10.08;51.56
60087;BME280;45960;53.630;55.972;2023-04-01T02:01:14;100291.38;;;10.08;51.75
60087;BME280;45960;53.630;55.972;2023-04-01T02:02:17;100310.06;;;10.08;51.92
60087;BME280;45960;53.630;55.972;2023-04-01T02:03:19;100327.03;;;10.07;52.01
60087;BME280;45960;53.630;55.972;2023-04-01T02:04:21;100341.34;;;10.06;52.25
60087;BME280;45960;53.630;55.972;2023-04-01T02:05:24;100348.09;;;9.98;52.68
60087;BME280;45960;53.630;55.972;2023-04-01T02:06:30;100353.13;;;9.88;53.16
60087;BME280;45960;53.630;55.972;2023-04-01T02:07:33;100354.38;;;9.82;53.38
60087;BME280;45960;53.630;55.972;2023-04-01T02:09:37;100361.13;;;9.74;53.93
60087;BME280;45960;53.630;55.972;2023-04-01T02:10:39;100361.69;;;9.64;54.57
60087;BME280;45960;53.630;55.972;2023-04-01T02:11:43;100358.44;;;9.59;54.27
60087;BME280;45960;53.630;55.972;2023-04-01T02:12:46;100349.66;;;9.57;54.53
60087;BME280;45960;53.630;55.972;2023-04-01T02:13:55;100345.88;;;9.61;54.20
60087;BME280;45960;53.630;55.972;2023-04-01T02:15:19;100340.16;;;9.68;54.14
60087;BME280;45960;53.630;55.972;2023-04-01T02:16:25;100346.06;;;9.73;53.99
60087;BME280;45960;53.630;55.972;2023-04-01T02:17:29;100342.25;;;9.77;53.83
60087;BME280;45960;53.630;55.972;2023-04-01T02:18:30;100339.22;;;9.83;53.72
60087;BME280;45960;53.630;55.972;2023-04-01T02:19:45;100334.56;;;9.86;53.59
60087;BME280;45960;53.630;55.972;2023-04-01T02:20:48;100322.66;;;9.92;53.37
60087;BME280;45960;53.630;55.972;2023-04-01T02:21:50;100317.13;;;9.95;53.15
60087;BME280;45960;53.630;55.972;2023-04-01T02:22:54;100309.88;;;9.97;53.24
60087;BME280;45960;53.630;55.972;2023-04-01T02:23:55;100322.25;;;9.98;53.25
60087;BME280;45960;53.630;55.972;2023-04-01T02:24:58;100311.59;;;9.98;53.14
60087;BME280;45960;53.630;55.972;2023-04-01T02:26:00;100313.28;;;9.99;53.05
60087;BME280;45960;53.630;55.972;2023-04-01T02:27:01;100315.03;;;10.00;53.03
60087;BME280;45960;53.630;55.972;2023-04-01T02:28:04;100282.16;;;10.00;52.99
60087;BME280;45960;53.630;55.972;2023-04-01T02:29:05;100267.84;;;10.01;53.15
60087;BME280;45960;53.630;55.972;2023-04-01T02:30:07;100263.53;;;9.98;53.08
60087;BME280;45960;53.630;55.972;2023-04-01T02:31:09;100258.41;;;9.95;53.04
60087;BME280;45960;53.630;55.972;2023-04-01T02:32:10;100270.97;;;9.93;53.09
60087;BME280;45960;53.630;55.972;2023-04-01T02:33:13;100262.19;;;9.91;53.12
60087;BME280;45960;53.630;55.972;2023-04-01T02:34:14;100257.75;;;9.92;53.09
60087;BME280;45960;53.630;55.972;2023-04-01T02:35:15;100263.09;;;9.92;53.19
60087;BME280;45960;53.630;55.972;2023-04-01T02:36:17;100258.78;;;9.89;53.19
60087;BME280;45960;53.630;55.972;2023-04-01T02:37:18;100258.78;;;9.89;53.23
60087;BME280;45960;53.630;55.972;2023-04-01T02:38:19;100278.41;;;9.88;53.24
60087;BME280;45960;53.630;55.972;2023-04-01T02:39:20;100294.53;;;9.86;53.27
60087;BME280;45960;53.630;55.972;2023-04-01T02:40:21;100313.22;;;9.86;53.33
60087;BME280;45960;53.630;55.972;2023-04-01T02:41:22;100303.78;;;9.81;53.91
60087;BME280;45960;53.630;55.972;2023-04-01T02:42:23;100306.06;;;9.73;54.07
60087;BME280;45960;53.630;55.972;2023-04-01T02:43:24;100318.63;;;9.71;53.97
60087;BME280;45960;53.630;55.972;2023-04-01T02:44:25;100322.25;;;9.70;54.23
60087;BME280;45960;53.630;55.972;2023-04-01T02:45:26;100326.75;;;9.69;54.46
60087;BME280;45960;53.630;55.972;2023-04-01T02:46:26;100319.00;;;9.64;54.73
60087;BME280;45960;53.630;55.972;2023-04-01T02:47:27;100335.56;;;9.55;55.01
60087;BME280;45960;53.630;55.972;2023-04-01T02:48:28;100339.53;;;9.48;55.25
60087;BME280;45960;53.630;55.972;2023-04-01T02:49:29;100339.72;;;9.45;55.36
60087;BME280;45960;53.630;55.972;2023-04-01T02:50:30;100346.88;;;9.45;55.18
60087;BME280;45960;53.630;55.972;2023-04-01T02:51:31;100344.88;;;9.48;55.19
60087;BME280;45960;53.630;55.972;2023-04-01T02:52:32;100353.66;;;9.50;55.21
60087;BME280;45960;53.630;55.972;2023-04-01T02:53:35;100359.91;;;9.49;55.34
60087;BME280;45960;53.630;55.972;2023-04-01T02:54:36;100348.31;;;9.50;55.19
60087;BME280;45960;53.630;55.972;2023-04-01T02:55:37;100350.69;;;9.55;55.01
60087;BME280;45960;53.630;55.972;2023-04-01T02:56:38;100353.28;;;9.56;54.86
60087;BME280;45960;53.630;55.972;2023-04-01T02:57:38;100347.75;;;9.59;54.74
60087;BME280;45960;53.630;55.972;2023-04-01T02:58:39;100347.38;;;9.66;54.48
60087;BME280;45960;53.630;55.972;2023-04-01T02:59:40;100348.75;;;9.73;54.38
60087;BME280;45960;53.630;55.972;2023-04-01T03:00:41;100344.72;;;9.80;54.28
60087;BME280;45960;53.630;55.972;2023-04-01T03:01:42;100344.38;;;9.86;53.80
60087;BME280;45960;53.630;55.972;2023-04-01T03:02:43;100340.38;;;9.93;53.57
60087;BME280;45960;53.630;55.972;2023-04-01T03:03:44;100332.94;;;9.98;53.58
60087;BME280;45960;53.630;55.972;2023-04-01T03:04:45;100333.53;;;10.03;53.29
60087;BME280;45960;53.630;55.972;2023-04-01T03:05:46;100335.81;;;10.09;53.12
60087;BME280;45960;53.630;55.972;2023-04-01T03:06:47;100339.03;;;10.15;52.87
60087;BME280;45960;53.630;55.972;2023-04-01T03:07:47;100335.03;;;10.22;53.00
60087;BME280;45960;53.630;55.972;2023-04-01T03:08:48;100332.97;;;10.27;52.67
60087;BME280;45960;53.630;55.972;2023-04-01T03:09:49;100337.91;;;10.33;52.57
60087;BME280;45960;53.630;55.972;2023-04-01T03:10:51;100334.88;;;10.39;52.35
60087;BME280;45960;53.630;55.972;2023-04-01T03:11:52;100331.81;;;10.45;52.40
60087;BME280;45960;53.630;55.972;2023-04-01T03:12:52;100342.09;;;10.51;52.28
60087;BME280;45960;53.630;55.972;2023-04-01T03:13:53;100341.69;;;10.58;52.11
60087;BME280;45960;53.630;55.972;2023-04-01T03:14:54;100344.72;;;10.66;51.89
60087;BME280;45960;53.630;55.972;2023-04-01T03:15:55;100338.97;;;10.72;51.79
60087;BME280;45960;53.630;55.972;2023-04-01T03:16:56;100347.47;;;10.79;51.48
60087;BME280;45960;53.630;55.972;2023-04-01T03:17:57;100361.28;;;10.85;51.31
60087;BME280;45960;53.630;55.972;2023-04-01T03:18:58;100361.72;;;10.92;51.36
60087;BME280;45960;53.630;55.972;2023-04-01T03:20:00;100364.13;;;10.96;51.20
60087;BME280;45960;53.630;55.972;2023-04-01T03:21:17;100358.56;;;11.00;50.97
60087;BME280;45960;53.630;55.972;2023-04-01T03:22:18;100358.34;;;11.03;50.90
60087;BME280;45960;53.630;55.972;2023-04-01T03:23:21;100365.44;;;11.04;51.00
60087;BME280;45960;53.630;55.972;2023-04-01T03:24:22;100363.50;;;11.06;51.00
60087;BME280;45960;53.630;55.972;2023-04-01T03:25:23;100356.25;;;11.08;50.89
60087;BME280;45960;53.630;55.972;2023-04-01T03:26:24;100352.44;;;11.12;50.85
60087;BME280;45960;53.630;55.972;2023-04-01T03:27:27;100353.94;;;11.16;50.75
60087;BME280;45960;53.630;55.972;2023-04-01T03:28:28;100348.38;;;11.19;50.89
60087;BME280;45960;53.630;55.972;2023-04-01T03:29:29;100342.81;;;11.22;50.80
60087;BME280;45960;53.630;55.972;2023-04-01T03:30:30;100341.88;;;11.23;50.61
60087;BME280;45960;53.630;55.972;2023-04-01T03:31:31;100344.53;;;11.23;50.72
60087;BME280;45960;53.630;55.972;2023-04-01T03:32:32;100346.47;;;11.21;50.77
60087;BME280;45960;53.630;55.972;2023-04-01T03:33:33;100350.06;;;11.20;50.65
60087;BME280;45960;53.630;55.972;2023-04-01T03:34:34;100340.34;;;11.19;50.68
60087;BME280;45960;53.630;55.972;2023-04-01T03:35:35;100335.97;;;11.18;50.73
60087;BME280;45960;53.630;55.972;2023-04-01T03:36:36;100332.53;;;11.16;50.93
60087;BME280;45960;53.630;55.972;2023-04-01T03:37:37;100337.88;;;11.16;50.79
60087;BME280;45960;53.630;55.972;2023-04-01T03:38:39;100331.69;;;11.15;50.92
60087;BME280;45960;53.630;55.972;2023-04-01T03:39:40;100328.88;;;11.17;50.90
60087;BME280;45960;53.630;55.972;2023-04-01T03:40:44;100334.22;;;11.17;50.86
60087;BME280;45960;53.630;55.972;2023-04-01T03:41:45;100325.28;;;11.18;50.86
60087;BME280;45960;53.630;55.972;2023-04-01T03:42:46;100320.88;;;11.17;50.90
60087;BME280;45960;53.630;55.972;2023-04-01T03:43:48;100306.66;;;11.16;51.03
60087;BME280;45960;53.630;55.972;2023-04-01T03:44:49;100298.75;;;11.15;50.88
60087;BME280;45960;53.630;55.972;2023-04-01T03:45:50;100306.00;;;11.13;51.06
60087;BME280;45960;53.630;55.972;2023-04-01T03:46:51;100314.22;;;11.10;50.93
60087;BME280;45960;53.630;55.972;2023-04-01T03:47:52;100315.16;;;11.09;50.89
60087;BME280;45960;53.630;55.972;2023-04-01T03:48:54;100301.06;;;11.07;51.10
60087;BME280;45960;53.630;55.972;2023-04-01T03:49:55;100315.38;;;11.06;51.03
60087;BME280;45960;53.630;55.972;2023-04-01T03:50:56;100319.88;;;11.05;50.88
60087;BME280;45960;53.630;55.972;2023-04-01T03:51:58;100315.59;;;11.03;51.01
60087;BME280;45960;53.630;55.972;2023-04-01T03:52:59;100308.53;;;11.02;51.01
60087;BME280;45960;53.630;55.972;2023-04-01T03:54:00;100299.75;;;11.00;51.53
60087;BME280;45960;53.630;55.972;2023-04-01T03:55:01;100307.00;;;10.97;51.48
60087;BME280;45960;53.630;55.972;2023-04-01T03:56:06;100283.91;;;10.96;51.94
60087;BME280;45960;53.630;55.972;2023-04-01T03:57:09;100271.53;;;10.95;52.06
60087;BME280;45960;53.630;55.972;2023-04-01T03:58:11;100268.09;;;10.93;52.33
60087;BME280;45960;53.630;55.972;2023-04-01T03:59:12;100259.31;;;10.91;52.50
60087;BME280;45960;53.630;55.972;2023-04-01T04:00:12;100269.22;;;10.89;52.56
60087;BME280;45960;53.630;55.972;2023-04-01T04:01:19;100286.44;;;10.85;52.75
60087;BME280;45960;53.630;55.972;2023-04-01T04:02:22;100313.19;;;10.85;52.89
60087;BME280;45960;53.630;55.972;2023-04-01T04:03:23;100323.88;;;10.85;53.19
60087;BME280;45960;53.630;55.972;2023-04-01T04:04:24;100338.69;;;10.77;53.71
60087;BME280;45960;53.630;55.972;2023-04-01T04:05:25;100333.63;;;10.72;53.92
60087;BME280;45960;53.630;55.972;2023-04-01T04:06:26;100335.38;;;10.73;54.07
60087;BME280;45960;53.630;55.972;2023-04-01T04:07:28;100331.53;;;10.77;53.90
60087;BME280;45960;53.630;55.972;2023-04-01T04:08:38;100323.00;;;10.85;53.81
60087;BME280;45960;53.630;55.972;2023-04-01T04:09:39;100311.06;;;10.90;53.65
60087;BME280;45960;53.630;55.972;2023-04-01T04:10:40;100307.97;;;10.96;53.53
60087;BME280;45960;53.630;55.972;2023-04-01T04:11:41;100312.16;;;11.01;53.32
60087;BME280;45960;53.630;55.972;2023-04-01T04:12:42;100311.00;;;11.05;53.07
60087;BME280;45960;53.630;55.972;2023-04-01T04:13:44;100315.38;;;11.06;52.91
60087;BME280;45960;53.630;55.972;2023-04-01T04:14:45;100313.69;;;11.05;53.00
60087;BME280;45960;53.630;55.972;2023-04-01T04:15:45;100306.63;;;11.04;52.96
60087;BME280;45960;53.630;55.972;2023-04-01T04:16:46;100299.53;;;11.03;52.81
60087;BME280;45960;53.630;55.972;2023-04-01T04:17:47;100303.94;;;11.04;52.68
60087;BME280;45960;53.630;55.972;2023-04-01T04:18:49;100302.97;;;11.05;52.69
60087;BME280;45960;53.630;55.972;2023-04-01T04:19:51;100311.75;;;11.07;52.54
60087;BME280;45960;53.630;55.972;2023-04-01T04:20:52;100305.44;;;11.08;52.25
60087;BME280;45960;53.630;55.972;2023-04-01T04:21:53;100311.56;;;11.10;52.38
60087;BME280;45960;53.630;55.972;2023-04-01T04:22:54;100315.00;;;11.12;52.18
60087;BME280;45960;53.630;55.972;2023-04-01T04:23:55;100316.69;;;11.13;52.23
60087;BME280;45960;53.630;55.972;2023-04-01T04:24:56;100315.50;;;11.17;52.15
60087;BME280;45960;53.630;55.972;2023-04-01T04:25:58;100316.28;;;11.19;52.12
60087;BME280;45960;53.630;55.972;2023-04-01T04:27:01;100317.81;;;11.23;51.98
60087;BME280;45960;53.630;55.972;2023-04-01T04:28:02;100310.50;;;11.25;51.86
60087;BME280;45960;53.630;55.972;2023-04-01T04:29:03;100312.03;;;11.29;51.79
60087;BME280;45960;53.630;55.972;2023-04-01T04:30:05;100310.97;;;11.32;51.71
60087;BME280;45960;53.630;55.972;2023-04-01T04:31:07;100316.09;;;11.35;51.77
60087;BME280;45960;53.630;55.972;2023-04-01T04:32:09;100295.56;;;11.35;51.54
60087;BME280;45960;53.630;55.972;2023-04-01T04:33:10;100287.41;;;11.37;51.72
60087;BME280;45960;53.630;55.972;2023-04-01T04:34:11;100281.22;;;11.36;51.74
60087;BME280;45960;53.630;55.972;2023-04-01T04:35:12;100281.22;;;11.36;51.68
60087;BME280;45960;53.630;55.972;2023-04-01T04:36:14;100286.56;;;11.36;51.48
60087;BME280;45960;53.630;55.972;2023-04-01T04:37:15;100294.59;;;11.36;51.44
60087;BME280;45960;53.630;55.972;2023-04-01T04:38:16;100304.44;;;11.36;51.42
60087;BME280;45960;53.630;55.972;2023-04-01T04:39:17;100308.81;;;11.37;51.45
60087;BME280;45960;53.630;55.972;2023-04-01T04:40:18;100312.38;;;11.37;51.45
60087;BME280;45960;53.630;55.972;2023-04-01T04:41:19;100312.38;;;11.37;51.34
60087;BME280;45960;53.630;55.972;2023-04-01T04:42:23;100312.16;;;11.40;51.46
60087;BME280;45960;53.630;55.972;2023-04-01T04:43:29;100317.38;;;11.42;51.40
60087;BME280;45960;53.630;55.972;2023-04-01T04:44:31;100312.72;;;11.46;51.29
60087;BME280;45960;53.630;55.972;2023-04-01T04:45:33;100302.84;;;11.46;51.13
60087;BME280;45960;53.630;55.972;2023-04-01T04:46:34;100308.84;;;11.50;51.23
60087;BME280;45960;53.630;55.972;2023-04-01T04:47:45;100336.91;;;11.57;51.03
60087;BME280;45960;53.630;55.972;2023-04-01T04:48:46;100341.84;;;11.63;51.04
60087;BME280;45960;53.630;55.972;2023-04-01T04:49:47;100331.47;;;11.71;50.70
60087;BME280;45960;53.630;55.972;2023-04-01T04:50:49;100324.69;;;11.78;50.75
60087;BME280;45960;53.630;55.972;2023-04-01T04:51:51;100333.09;;;11.86;50.57
60087;BME280;45960;53.630;55.972;2023-04-01T04:52:55;100339.00;;;11.92;50.45
60087;BME280;45960;53.630;55.972;2023-04-01T04:53:57;100315.66;;;11.94;50.50
60087;BME280;45960;53.630;55.972;2023-04-01T04:55:09;100320.03;;;11.95;50.37
60087;BME280;45960;53.630;55.972;2023-04-01T04:56:11;100325.16;;;11.98;50.49
60087;BME280;45960;53.630;55.972;2023-04-01T04:57:18;100320.25;;;12.04;50.53
60087;BME280;45960;53.630;55.972;2023-04-01T04:58:26;100324.09;;;12.13;50.71
60087;BME280;45960;53.630;55.972;2023-04-01T04:59:27;100312.72;;;12.22;50.55
60087;BME280;45960;53.630;55.972;2023-04-01T05:00:42;100320.94;;;12.32;50.73
60087;BME280;45960;53.630;55.972;2023-04-01T05:01:51;100322.84;;;12.43;50.70
60087;BME280;45960;53.630;55.972;2023-04-01T05:02:52;100325.06;;;12.49;50.63
60087;BME280;45960;53.630;55.972;2023-04-01T05:03:53;100324.44;;;12.58;50.75
60087;BME280;45960;53.630;55.972;2023-04-01T05:04:54;100336.16;;;12.68;50.77
60087;BME280;45960;53.630;55.972;2023-04-01T05:05:55;100323.06;;;12.76;50.61
60087;BME280;45960;53.630;55.972;2023-04-01T05:06:56;100312.63;;;12.85;50.59
60087;BME280;45960;53.630;55.972;2023-04-01T05:07:57;100298.56;;;12.94;50.46
60087;BME280;45960;53.630;55.972;2023-04-01T05:08:58;100288.22;;;13.01;50.63
60087;BME280;45960;53.630;55.972;2023-04-01T05:10:00;100295.94;;;13.05;50.50
60087;BME280;45960;53.630;55.972;2023-04-01T05:11:02;100293.72;;;13.10;50.46
60087;BME280;45960;53.630;55.972;2023-04-01T05:12:06;100305.81;;;13.16;50.57
60087;BME280;45960;53.630;55.972;2023-04-01T05:13:27;100306.09;;;13.24;50.71
60087;BME280;45960;53.630;55.972;2023-04-01T05:14:28;100313.59;;;13.32;50.50
60087;BME280;45960;53.630;55.972;2023-04-01T05:15:36;100306.56;;;13.42;50.30
60087;BME280;45960;53.630;55.972;2023-04-01T05:16:37;100306.59;;;13.53;50.19
60087;BME280;45960;53.630;55.972;2023-04-01T05:17:38;100304.91;;;13.63;49.91
60087;BME280;45960;53.630;55.972;2023-04-01T05:18:39;100306.66;;;13.76;49.82
60087;BME280;45960;53.630;55.972;2023-04-01T05:19:40;100310.19;;;13.87;49.51
60087;BME280;45960;53.630;55.972;2023-04-01T05:20:51;100303.25;;;13.96;49.21
60087;BME280;45960;53.630;55.972;2023-04-01T05:21:52;100310.81;;;14.02;49.05
60087;BME280;45960;53.630;55.972;2023-04-01T05:22:57;100305.19;;;14.05;48.85
60087;BME280;45960;53.630;55.972;2023-04-01T05:23:59;100307.88;;;14.05;48.90
60087;BME280;45960;53.630;55.972;2023-04-01T05:25:00;100303.38;;;14.06;48.83
60087;BME280;45960;53.630;55.972;2023-04-01T05:26:04;100292.63;;;14.06;48.91
60087;BME280;45960;53.630;55.972;2023-04-01T05:27:06;100299.09;;;14.03;48.92
60087;BME280;45960;53.630;55.972;2023-04-01T05:28:08;100299.56;;;13.97;49.06
60087;BME280;45960;53.630;55.972;2023-04-01T05:29:09;100291.88;;;13.93;48.94
60087;BME280;45960;53.630;55.972;2023-04-01T05:30:10;100296.41;;;13.92;49.01
60087;BME280;45960;53.630;55.972;2023-04-01T05:31:31;100302.00;;;13.89;49.26
60087;BME280;45960;53.630;55.972;2023-04-01T05:32:32;100317.91;;;13.92;49.29
60087;BME280;45960;53.630;55.972;2023-04-01T05:33:34;100312.03;;;13.98;49.24
60087;BME280;45960;53.630;55.972;2023-04-01T05:34:36;100320.34;;;14.06;49.15
60087;BME280;45960;53.630;55.972;2023-04-01T05:35:37;100313.00;;;14.08;49.09
60087;BME280;45960;53.630;55.972;2023-04-01T05:36:38;100315.94;;;14.17;48.94
60087;BME280;45960;53.630;55.972;2023-04-01T05:37:40;100318.16;;;14.23;48.84
60087;BME280;45960;53.630;55.972;2023-04-01T05:38:41;100317.41;;;14.32;48.57
60087;BME280;45960;53.630;55.972;2023-04-01T05:39:45;100316.91;;;14.38;48.39
60087;BME280;45960;53.630;55.972;2023-04-01T05:40:46;100311.03;;;14.44;48.54